sensor_id;sensor_type;location;lat;lon;timestamp;pressure;altitude;pressure_sealevel;temperature;humidity
61961;BME280;47923;42.506;24.192;2023-04-26T00:00:21;94472.59;;;8.34;78.79
61961;BME280;47923;42.506;24.192;2023-04-26T00:02:47;94547.34;;;8.78;79.57
61961;BME280;47923;42.506;24.192;2023-04-26T00:05:13;94528.16;;;8.49;79.83
61961;BME280;47923;42.506;24.192;2023-04-26T00:07:40;94465.25;;;7.97;80.23
61961;BME280;47923;42.506;24.192;2023-04-26T00:10:07;94447.25;;;7.71;81.31
61961;BME280;47923;42.506;24.192;2023-04-26T00:12:33;94533.44;;;8.12;82.14
61961;BME280;47923;42.506;24.192;2023-04-26T00:15:00;94495.03;;;7.85;81.67
61961;BME280;47923;42.506;24.192;2023-04-26T00:17:26;94538.78;;;8.09;82.83
61961;BME280;47923;42.506;24.192;2023-04-26T00:19:51;94536.09;;;7.82;82.48
61961;BME280;47923;42.506;24.192;2023-04-26T00:22:16;94468.78;;;7.48;82.71
61961;BME280;47923;42.506;24.192;2023-04-26T00:24:42;94545.72;;;7.83;82.26
61961;BME280;47923;42.506;24.192;2023-04-26T00:27:08;94361.44;;;6.53;82.11
61961;BME280;47923;42.506;24.192;2023-04-26T00:29:35;94524.78;;;7.69;81.67
61961;BME280;47923;42.506;24.192;2023-04-26T00:32:01;94535.84;;;7.64;81.54
61961;BME280;47923;42.506;24.192;2023-04-26T00:34:34;94292.13;;;5.90;84.05
61961;BME280;47923;42.506;24.192;2023-04-26T00:37:00;94473.06;;;7.27;82.87
61961;BME280;47923;42.506;24.192;2023-04-26T00:39:27;94521.00;;;7.74;82.52
61961;BME280;47923;42.506;24.192;2023-04-26T00:41:53;94468.28;;;7.39;83.13
61961;BME280;47923;42.506;24.192;2023-04-26T00:44:18;94486.16;;;7.55;82.61
61961;BME280;47923;42.506;24.192;2023-04-26T00:46:44;94386.84;;;7.09;83.51
61961;BME280;47923;42.506;24.192;2023-04-26T00:49:14;94500.09;;;7.90;82.60
61961;BME280;47923;42.506;24.192;2023-04-26T00:51:41;94243.59;;;6.41;81.63
61961;BME280;47923;42.506;24.192;2023-04-26T00:54:07;94384.06;;;7.28;82.33
61961;BME280;47923;42.506;24.192;2023-04-26T00:56:35;94398.28;;;7.29;81.89
61961;BME280;47923;42.506;24.192;2023-04-26T00:59:02;94521.97;;;8.15;81.74
61961;BME280;47923;42.506;24.192;2023-04-26T01:01:27;94444.28;;;7.80;82.01
61961;BME280;47923;42.506;24.192;2023-04-26T01:03:53;94399.97;;;7.40;81.51
61961;BME280;47923;42.506;24.192;2023-04-26T01:06:19;94511.78;;;8.31;80.75
61961;BME280;47923;42.506;24.192;2023-04-26T01:08:45;94206.22;;;6.29;80.41
61961;BME280;47923;42.506;24.192;2023-04-26T01:11:11;94509.38;;;8.23;80.81
61961;BME280;47923;42.506;24.192;2023-04-26T01:13:37;94511.56;;;8.14;80.78
61961;BME280;47923;42.506;24.192;2023-04-26T01:16:03;94026.75;;;4.91;81.61
61961;BME280;47923;42.506;24.192;2023-04-26T01:18:29;94332.13;;;6.90;82.01
61961;BME280;47923;42.506;24.192;2023-04-26T01:20:54;94324.28;;;6.82;81.42
61961;BME280;47923;42.506;24.192;2023-04-26T01:23:21;94499.81;;;7.95;82.38
61961;BME280;47923;42.506;24.192;2023-04-26T01:25:47;94508.13;;;7.87;82.51
61961;BME280;47923;42.506;24.192;2023-04-26T01:28:12;94497.59;;;7.74;82.75
61961;BME280;47923;42.506;24.192;2023-04-26T01:30:38;94437.44;;;7.30;82.99
61961;BME280;47923;42.506;24.192;2023-04-26T01:33:03;94336.94;;;6.55;83.14
61961;BME280;47923;42.506;24.192;2023-04-26T01:35:29;94510.63;;;7.72;83.27
61961;BME280;47923;42.506;24.192;2023-04-26T01:37:55;94425.91;;;7.29;82.94
61961;BME280;47923;42.506;24.192;2023-04-26T01:40:20;94420.78;;;7.47;81.77
61961;BME280;47923;42.506;24.192;2023-04-26T01:42:46;93915.88;;;4.20;80.83
61961;BME280;47923;42.506;24.192;2023-04-26T01:45:11;94031.94;;;4.81;81.35
61961;BME280;47923;42.506;24.192;2023-04-26T01:47:37;94509.31;;;7.89;81.47
61961;BME280;47923;42.506;24.192;2023-04-26T01:50:03;94442.25;;;7.43;82.50
61961;BME280;47923;42.506;24.192;2023-04-26T01:52:28;94488.19;;;7.61;82.45
61961;BME280;47923;42.506;24.192;2023-04-26T01:54:54;94480.06;;;7.58;82.83
61961;BME280;47923;42.506;24.192;2023-04-26T01:57:19;94291.63;;;6.27;82.40
61961;BME280;47923;42.506;24.192;2023-04-26T01:59:45;94489.50;;;7.48;82.47
61961;BME280;47923;42.506;24.192;2023-04-26T02:02:10;94488.19;;;7.61;82.66
61961;BME280;47923;42.506;24.192;2023-04-26T02:04:36;94490.06;;;7.57;83.18
61961;BME280;47923;42.506;24.192;2023-04-26T02:07:01;94414.63;;;6.93;83.04
61961;BME280;47923;42.506;24.192;2023-04-26T02:09:26;94491.28;;;7.37;83.46
61961;BME280;47923;42.506;24.192;2023-04-26T02:11:52;94499.88;;;7.23;83.57
61961;BME280;47923;42.506;24.192;2023-04-26T02:14:17;94504.16;;;7.05;84.14
61961;BME280;47923;42.506;24.192;2023-04-26T02:16:43;94515.63;;;7.02;85.15
61961;BME280;47923;42.506;24.192;2023-04-26T02:19:09;94413.03;;;6.24;85.94
61961;BME280;47923;42.506;24.192;2023-04-26T02:21:54;94463.72;;;6.71;87.06
61961;BME280;47923;42.506;24.192;2023-04-26T02:24:21;94511.13;;;7.06;86.92
61961;BME280;47923;42.506;24.192;2023-04-26T02:26:47;94500.38;;;7.06;86.99
61961;BME280;47923;42.506;24.192;2023-04-26T02:29:13;94096.97;;;4.42;86.39
61961;BME280;47923;42.506;24.192;2023-04-26T02:31:38;94502.22;;;7.02;86.86
61961;BME280;47923;42.506;24.192;2023-04-26T02:34:04;94505.91;;;6.93;86.33
61961;BME280;47923;42.506;24.192;2023-04-26T02:36:30;94431.66;;;6.36;86.48
61961;BME280;47923;42.506;24.192;2023-04-26T02:38:57;94507.75;;;6.89;86.89
61961;BME280;47923;42.506;24.192;2023-04-26T02:41:23;94248.19;;;5.14;87.96
61961;BME280;47923;42.506;24.192;2023-04-26T02:43:49;94295.22;;;5.31;87.63
61961;BME280;47923;42.506;24.192;2023-04-26T02:46:14;94520.50;;;6.73;88.59
61961;BME280;47923;42.506;24.192;2023-04-26T02:48:40;93797.06;;;1.92;88.09
61961;BME280;47923;42.506;24.192;2023-04-26T02:51:05;94173.72;;;4.42;87.81
61961;BME280;47923;42.506;24.192;2023-04-26T02:53:31;94521.28;;;6.74;87.99
61961;BME280;47923;42.506;24.192;2023-04-26T02:55:56;94251.81;;;5.02;87.36
61961;BME280;47923;42.506;24.192;2023-04-26T02:58:22;94510.53;;;6.74;86.55
61961;BME280;47923;42.506;24.192;2023-04-26T03:00:48;94531.34;;;7.00;86.50
61961;BME280;47923;42.506;24.192;2023-04-26T03:03:13;94531.03;;;7.05;86.61
61961;BME280;47923;42.506;24.192;2023-04-26T03:05:39;94412.75;;;6.29;86.37
61961;BME280;47923;42.506;24.192;2023-04-26T03:08:06;94531.88;;;7.09;86.54
61961;BME280;47923;42.506;24.192;2023-04-26T03:10:31;94536.47;;;7.08;87.11
61961;BME280;47923;42.506;24.192;2023-04-26T03:12:57;94209.34;;;5.01;87.09
61961;BME280;47923;42.506;24.192;2023-04-26T03:15:22;94520.38;;;7.08;87.20
61961;BME280;47923;42.506;24.192;2023-04-26T03:17:48;94497.00;;;6.89;86.75
61961;BME280;47923;42.506;24.192;2023-04-26T03:20:13;94503.84;;;7.06;87.09
61961;BME280;47923;42.506;24.192;2023-04-26T03:22:39;94340.75;;;5.89;86.67
61961;BME280;47923;42.506;24.192;2023-04-26T03:25:05;94501.69;;;7.15;86.31
61961;BME280;47923;42.506;24.192;2023-04-26T03:27:32;94489.84;;;6.97;86.53
61961;BME280;47923;42.506;24.192;2023-04-26T03:29:58;94174.38;;;5.13;86.31
61961;BME280;47923;42.506;24.192;2023-04-26T03:32:23;94483.91;;;7.07;87.04
61961;BME280;47923;42.506;24.192;2023-04-26T03:34:49;94467.72;;;6.81;86.36
61961;BME280;47923;42.506;24.192;2023-04-26T03:37:14;94479.06;;;6.71;87.54
61961;BME280;47923;42.506;24.192;2023-04-26T03:39:40;94507.94;;;6.77;87.70
61961;BME280;47923;42.506;24.192;2023-04-26T03:42:06;94377.06;;;5.86;87.57
61961;BME280;47923;42.506;24.192;2023-04-26T03:44:31;94508.59;;;6.71;88.48
61961;BME280;47923;42.506;24.192;2023-04-26T03:46:57;94403.53;;;6.07;88.25
61961;BME280;47923;42.506;24.192;2023-04-26T03:49:22;94476.28;;;6.67;87.75
61961;BME280;47923;42.506;24.192;2023-04-26T03:51:48;94510.22;;;6.98;87.61
61961;BME280;47923;42.506;24.192;2023-04-26T03:54:14;94435.25;;;6.67;87.96
61961;BME280;47923;42.506;24.192;2023-04-26T03:56:40;94418.91;;;6.75;87.02
61961;BME280;47923;42.506;24.192;2023-04-26T03:59:06;93986.16;;;3.82;85.73
61961;BME280;47923;42.506;24.192;2023-04-26T04:01:31;94092.50;;;5.12;85.48
61961;BME280;47923;42.506;24.192;2023-04-26T04:03:57;94426.59;;;8.09;81.90
61961;BME280;47923;42.506;24.192;2023-04-26T04:06:26;94507.41;;;8.83;79.99
61961;BME280;47923;42.506;24.192;2023-04-26T04:08:51;94281.50;;;7.90;77.39
61961;BME280;47923;42.506;24.192;2023-04-26T04:11:17;94510.41;;;9.63;75.79
61961;BME280;47923;42.506;24.192;2023-04-26T04:13:43;94204.00;;;7.58;74.37
61961;BME280;47923;42.506;24.192;2023-04-26T04:16:09;94421.72;;;9.48;73.69
61961;BME280;47923;42.506;24.192;2023-04-26T04:18:35;94495.25;;;11.19;70.40
61961;BME280;47923;42.506;24.192;2023-04-26T04:21:01;94079.69;;;10.28;62.80
61961;BME280;47923;42.506;24.192;2023-04-26T04:23:27;94328.75;;;11.43;60.87
61961;BME280;47923;42.506;24.192;2023-04-26T04:25:52;94515.63;;;12.41;62.73
61961;BME280;47923;42.506;24.192;2023-04-26T04:28:18;94512.53;;;13.78;59.56
61961;BME280;47923;42.506;24.192;2023-04-26T04:30:43;94325.66;;;13.39;54.41
61961;BME280;47923;42.506;24.192;2023-04-26T04:33:10;94514.50;;;13.74;56.43
61961;BME280;47923;42.506;24.192;2023-04-26T04:35:36;94525.53;;;12.83;60.11
61961;BME280;47923;42.506;24.192;2023-04-26T04:38:02;94062.34;;;9.19;61.86
61961;BME280;47923;42.506;24.192;2023-04-26T04:40:29;94496.03;;;11.69;62.81
61961;BME280;47923;42.506;24.192;2023-04-26T04:42:54;94512.28;;;11.83;63.59
61961;BME280;47923;42.506;24.192;2023-04-26T04:45:20;94426.88;;;11.29;63.77
61961;BME280;47923;42.506;24.192;2023-04-26T04:47:46;94521.16;;;12.05;63.67
61961;BME280;47923;42.506;24.192;2023-04-26T04:50:11;94463.56;;;11.69;63.16
61961;BME280;47923;42.506;24.192;2023-04-26T04:52:37;94526.94;;;12.14;63.42
61961;BME280;47923;42.506;24.192;2023-04-26T04:55:03;94515.72;;;12.12;63.20
61961;BME280;47923;42.506;24.192;2023-04-26T04:57:29;94523.13;;;11.83;63.88
61961;BME280;47923;42.506;24.192;2023-04-26T04:59:57;94296.38;;;10.14;65.40
61961;BME280;47923;42.506;24.192;2023-04-26T05:02:22;94255.09;;;10.00;64.72
61961;BME280;47923;42.506;24.192;2023-04-26T05:04:49;94396.78;;;11.13;64.93
61961;BME280;47923;42.506;24.192;2023-04-26T05:07:15;94525.81;;;11.98;64.12
61961;BME280;47923;42.506;24.192;2023-04-26T05:09:42;94448.91;;;11.56;63.84
61961;BME280;47923;42.506;24.192;2023-04-26T05:12:07;94395.97;;;11.37;64.27
61961;BME280;47923;42.506;24.192;2023-04-26T05:14:33;94519.53;;;12.36;62.94
61961;BME280;47923;42.506;24.192;2023-04-26T05:16:59;94528.03;;;12.38;62.79
61961;BME280;47923;42.506;24.192;2023-04-26T05:19:24;94528.38;;;12.48;62.67
61961;BME280;47923;42.506;24.192;2023-04-26T05:21:51;94452.31;;;12.06;62.34
61961;BME280;47923;42.506;24.192;2023-04-26T05:24:17;94363.09;;;11.63;62.18
61961;BME280;47923;42.506;24.192;2023-04-26T05:26:42;94520.41;;;13.03;60.17
61961;BME280;47923;42.506;24.192;2023-04-26T05:29:08;94521.94;;;13.67;59.15
61961;BME280;47923;42.506;24.192;2023-04-26T05:31:33;94516.34;;;13.88;57.73
61961;BME280;47923;42.506;24.192;2023-04-26T05:33:59;94442.78;;;13.72;55.61
61961;BME280;47923;42.506;24.192;2023-04-26T05:36:24;94451.44;;;13.60;55.04
61961;BME280;47923;42.506;24.192;2023-04-26T05:38:50;94523.09;;;14.10;54.77
61961;BME280;47923;42.506;24.192;2023-04-26T05:41:16;94361.44;;;13.65;53.59
61961;BME280;47923;42.506;24.192;2023-04-26T05:43:41;94493.78;;;15.24;50.30
61961;BME280;47923;42.506;24.192;2023-04-26T05:46:07;94442.63;;;15.66;46.43
61961;BME280;47923;42.506;24.192;2023-04-26T05:48:33;94488.63;;;16.27;45.21
61961;BME280;47923;42.506;24.192;2023-04-26T05:50:58;94475.09;;;16.23;46.03
61961;BME280;47923;42.506;24.192;2023-04-26T05:53:24;94495.81;;;17.85;41.96
61961;BME280;47923;42.506;24.192;2023-04-26T05:55:50;94496.09;;;19.45;38.74
61961;BME280;47923;42.506;24.192;2023-04-26T05:58:15;94497.88;;;19.65;37.05
61961;BME280;47923;42.506;24.192;2023-04-26T06:00:41;94254.56;;;18.65;35.48
61961;BME280;47923;42.506;24.192;2023-04-26T06:03:07;94493.06;;;21.88;33.54
61961;BME280;47923;42.506;24.192;2023-04-26T06:05:32;94376.53;;;21.67;32.75
61961;BME280;47923;42.506;24.192;2023-04-26T06:07:58;94492.72;;;22.72;30.33
61961;BME280;47923;42.506;24.192;2023-04-26T06:10:24;94502.84;;;21.39;32.15
61961;BME280;47923;42.506;24.192;2023-04-26T06:12:50;94490.63;;;20.65;32.85
61961;BME280;47923;42.506;24.192;2023-04-26T06:15:15;94427.66;;;19.32;34.50
61961;BME280;47923;42.506;24.192;2023-04-26T06:17:41;94499.38;;;19.27;36.41
61961;BME280;47923;42.506;24.192;2023-04-26T06:20:07;94440.34;;;19.39;36.28
61961;BME280;47923;42.506;24.192;2023-04-26T06:22:36;94271.75;;;18.91;34.74
61961;BME280;47923;42.506;24.192;2023-04-26T06:25:03;94466.38;;;20.86;33.30
61961;BME280;47923;42.506;24.192;2023-04-26T06:27:29;94434.66;;;21.56;33.21
61961;BME280;47923;42.506;24.192;2023-04-26T06:29:55;94489.66;;;23.06;31.68
61961;BME280;47923;42.506;24.192;2023-04-26T06:32:20;94480.28;;;23.13;31.40
61961;BME280;47923;42.506;24.192;2023-04-26T06:34:45;94478.34;;;24.61;29.50
61961;BME280;47923;42.506;24.192;2023-04-26T06:37:12;94250.09;;;24.72;27.05
61961;BME280;47923;42.506;24.192;2023-04-26T06:39:37;94388.16;;;26.68;25.29
61961;BME280;47923;42.506;24.192;2023-04-26T06:42:03;94410.16;;;28.80;23.65
61961;BME280;47923;42.506;24.192;2023-04-26T06:44:29;94361.09;;;29.78;21.79
61961;BME280;47923;42.506;24.192;2023-04-26T06:46:55;94468.81;;;31.69;20.39
61961;BME280;47923;42.506;24.192;2023-04-26T06:49:21;94476.81;;;32.38;19.24
61961;BME280;47923;42.506;24.192;2023-04-26T06:51:47;94473.41;;;32.21;18.70
61961;BME280;47923;42.506;24.192;2023-04-26T06:54:13;94255.22;;;31.62;18.41
61961;BME280;47923;42.506;24.192;2023-04-26T06:56:38;94400.09;;;32.95;17.02
61961;BME280;47923;42.506;24.192;2023-04-26T06:59:05;94473.22;;;34.60;18.27
61961;BME280;47923;42.506;24.192;2023-04-26T07:01:32;94470.03;;;35.37;15.44
61961;BME280;47923;42.506;24.192;2023-04-26T07:03:59;94479.25;;;34.38;17.69
61961;BME280;47923;42.506;24.192;2023-04-26T07:06:28;94396.53;;;33.46;17.94
61961;BME280;47923;42.506;24.192;2023-04-26T07:08:53;94095.22;;;31.54;18.01
61961;BME280;47923;42.506;24.192;2023-04-26T07:11:19;94419.63;;;34.24;16.88
61961;BME280;47923;42.506;24.192;2023-04-26T07:13:45;94246.56;;;33.64;15.52
61961;BME280;47923;42.506;24.192;2023-04-26T07:16:10;94439.34;;;35.19;15.95
61961;BME280;47923;42.506;24.192;2023-04-26T07:18:36;94375.06;;;33.67;16.76
61961;BME280;47923;42.506;24.192;2023-04-26T07:21:01;94354.72;;;29.94;19.77
61961;BME280;47923;42.506;24.192;2023-04-26T07:23:28;94298.88;;;30.75;18.62
61961;BME280;47923;42.506;24.192;2023-04-26T07:25:54;94476.63;;;31.76;19.04
61961;BME280;47923;42.506;24.192;2023-04-26T07:28:20;94416.25;;;29.07;21.21
61961;BME280;47923;42.506;24.192;2023-04-26T07:30:45;94246.63;;;25.07;24.07
61961;BME280;47923;42.506;24.192;2023-04-26T07:33:10;94040.09;;;22.16;26.01
61961;BME280;47923;42.506;24.192;2023-04-26T07:35:36;94483.13;;;24.36;27.14
61961;BME280;47923;42.506;24.192;2023-04-26T07:38:01;94481.25;;;23.01;29.14
61961;BME280;47923;42.506;24.192;2023-04-26T07:40:27;94447.72;;;21.83;30.94
61961;BME280;47923;42.506;24.192;2023-04-26T07:42:54;94496.97;;;22.09;31.55
61961;BME280;47923;42.506;24.192;2023-04-26T07:45:20;94519.44;;;21.36;32.51
61961;BME280;47923;42.506;24.192;2023-04-26T07:47:45;94481.94;;;20.89;33.39
61961;BME280;47923;42.506;24.192;2023-04-26T07:50:12;94497.13;;;21.03;33.21
61961;BME280;47923;42.506;24.192;2023-04-26T07:52:37;94319.13;;;20.70;32.21
61961;BME280;47923;42.506;24.192;2023-04-26T07:55:03;94407.22;;;23.69;28.43
61961;BME280;47923;42.506;24.192;2023-04-26T07:57:29;94476.28;;;25.59;25.97
61961;BME280;47923;42.506;24.192;2023-04-26T07:59:55;94491.41;;;27.41;23.59
61961;BME280;47923;42.506;24.192;2023-04-26T08:02:20;94456.72;;;29.13;21.34
61961;BME280;47923;42.506;24.192;2023-04-26T08:04:47;94431.25;;;30.46;19.91
61961;BME280;47923;42.506;24.192;2023-04-26T08:07:24;94423.13;;;32.45;16.89
61961;BME280;47923;42.506;24.192;2023-04-26T08:09:49;94481.59;;;33.05;16.00
61961;BME280;47923;42.506;24.192;2023-04-26T08:12:15;94483.06;;;32.68;16.33
61961;BME280;47923;42.506;24.192;2023-04-26T08:14:40;94481.63;;;30.70;18.47
61961;BME280;47923;42.506;24.192;2023-04-26T08:17:06;94397.75;;;29.93;18.67
61961;BME280;47923;42.506;24.192;2023-04-26T08:19:34;94392.28;;;29.54;19.19
61961;BME280;47923;42.506;24.192;2023-04-26T08:22:00;94420.94;;;30.35;17.90
61961;BME280;47923;42.506;24.192;2023-04-26T08:24:26;94467.00;;;31.71;16.91
61961;BME280;47923;42.506;24.192;2023-04-26T08:26:52;94469.88;;;32.44;16.40
61961;BME280;47923;42.506;24.192;2023-04-26T08:29:17;94484.38;;;32.43;16.58
61961;BME280;47923;42.506;24.192;2023-04-26T08:31:43;94193.09;;;30.22;16.85
61961;BME280;47923;42.506;24.192;2023-04-26T08:34:08;94466.97;;;31.77;16.30
61961;BME280;47923;42.506;24.192;2023-04-26T08:36:42;94454.69;;;32.15;15.82
61961;BME280;47923;42.506;24.192;2023-04-26T08:39:08;94172.94;;;29.58;16.59
61961;BME280;47923;42.506;24.192;2023-04-26T08:41:42;94437.38;;;30.33;17.79
61961;BME280;47923;42.506;24.192;2023-04-26T08:44:07;94478.22;;;30.03;18.37
61961;BME280;47923;42.506;24.192;2023-04-26T08:46:39;94414.19;;;30.72;18.04
61961;BME280;47923;42.506;24.192;2023-04-26T08:51:55;94439.69;;;31.28;17.93
61961;BME280;47923;42.506;24.192;2023-04-26T08:54:22;94378.94;;;31.70;17.72
61961;BME280;47923;42.506;24.192;2023-04-26T08:56:50;94377.25;;;31.37;18.68
61961;BME280;47923;42.506;24.192;2023-04-26T08:59:18;94176.69;;;29.66;18.49
61961;BME280;47923;42.506;24.192;2023-04-26T09:01:44;94441.38;;;32.03;17.58
61961;BME280;47923;42.506;24.192;2023-04-26T09:04:11;94457.94;;;32.87;17.03
61961;BME280;47923;42.506;24.192;2023-04-26T09:06:37;94295.81;;;31.08;17.33
61961;BME280;47923;42.506;24.192;2023-04-26T09:09:03;94468.09;;;32.66;17.19
61961;BME280;47923;42.506;24.192;2023-04-26T09:11:54;94254.88;;;32.09;16.55
61961;BME280;47923;42.506;24.192;2023-04-26T09:14:21;94452.13;;;32.85;16.61
61961;BME280;47923;42.506;24.192;2023-04-26T09:16:46;94141.59;;;31.14;16.48
61961;BME280;47923;42.506;24.192;2023-04-26T09:19:12;94452.38;;;34.29;15.27
61961;BME280;47923;42.506;24.192;2023-04-26T09:21:45;94373.47;;;34.51;14.21
61961;BME280;47923;42.506;24.192;2023-04-26T09:24:12;94399.47;;;34.12;14.38
61961;BME280;47923;42.506;24.192;2023-04-26T09:26:38;94458.72;;;33.71;14.39
61961;BME280;47923;42.506;24.192;2023-04-26T09:29:11;94463.50;;;33.25;14.74
61961;BME280;47923;42.506;24.192;2023-04-26T09:31:40;94455.50;;;31.50;16.17
61961;BME280;47923;42.506;24.192;2023-04-26T09:34:06;94476.59;;;30.46;17.54
61961;BME280;47923;42.506;24.192;2023-04-26T09:36:48;94429.06;;;28.71;18.99
61961;BME280;47923;42.506;24.192;2023-04-26T09:39:28;94262.97;;;25.11;21.69
61961;BME280;47923;42.506;24.192;2023-04-26T09:41:56;94188.13;;;23.55;22.99
61961;BME280;47923;42.506;24.192;2023-04-26T09:44:22;94467.53;;;25.01;23.65
61961;BME280;47923;42.506;24.192;2023-04-26T09:46:58;94467.31;;;24.13;24.52
61961;BME280;47923;42.506;24.192;2023-04-26T09:49:29;94460.22;;;23.22;27.21
61961;BME280;47923;42.506;24.192;2023-04-26T09:52:03;94302.13;;;22.07;26.41
61961;BME280;47923;42.506;24.192;2023-04-26T09:57:07;94423.91;;;22.07;28.19
61961;BME280;47923;42.506;24.192;2023-04-26T09:59:59;94382.44;;;21.65;28.24
61961;BME280;47923;42.506;24.192;2023-04-26T10:02:33;94371.56;;;21.34;28.96
61961;BME280;47923;42.506;24.192;2023-04-26T10:04:59;94477.53;;;21.22;29.52
61961;BME280;47923;42.506;24.192;2023-04-26T10:07:26;94473.84;;;21.16;28.80
61961;BME280;47923;42.506;24.192;2023-04-26T10:09:52;94474.88;;;21.10;28.75
61961;BME280;47923;42.506;24.192;2023-04-26T10:12:18;94482.53;;;21.15;27.76
61961;BME280;47923;42.506;24.192;2023-04-26T10:14:45;94436.75;;;20.59;28.95
61961;BME280;47923;42.506;24.192;2023-04-26T10:17:12;94480.22;;;20.60;28.94
61961;BME280;47923;42.506;24.192;2023-04-26T10:19:40;94376.09;;;19.78;28.39
61961;BME280;47923;42.506;24.192;2023-04-26T10:22:15;94483.25;;;20.06;28.44
61961;BME280;47923;42.506;24.192;2023-04-26T10:24:43;94374.56;;;19.04;29.09
61961;BME280;47923;42.506;24.192;2023-04-26T10:27:09;94359.97;;;19.08;29.79
61961;BME280;47923;42.506;24.192;2023-04-26T10:32:22;94086.69;;;16.80;30.07
61961;BME280;47923;42.506;24.192;2023-04-26T10:35:12;94476.63;;;19.69;30.76
61961;BME280;47923;42.506;24.192;2023-04-26T10:40:27;94474.06;;;19.74;30.87
61961;BME280;47923;42.506;24.192;2023-04-26T10:45:35;94481.94;;;20.32;30.68
61961;BME280;47923;42.506;24.192;2023-04-26T10:51:08;94477.88;;;20.72;31.02
61961;BME280;47923;42.506;24.192;2023-04-26T10:59:19;94403.66;;;20.53;30.79
61961;BME280;47923;42.506;24.192;2023-04-26T11:01:45;94473.25;;;20.90;30.69
61961;BME280;47923;42.506;24.192;2023-04-26T11:04:11;94432.75;;;20.51;31.51
61961;BME280;47923;42.506;24.192;2023-04-26T11:06:50;94475.94;;;20.81;30.89
61961;BME280;47923;42.506;24.192;2023-04-26T11:09:51;94470.84;;;21.23;30.92
61961;BME280;47923;42.506;24.192;2023-04-26T11:12:17;94472.19;;;21.50;29.88
61961;BME280;47923;42.506;24.192;2023-04-26T11:14:43;94441.38;;;20.93;29.90
61961;BME280;47923;42.506;24.192;2023-04-26T11:17:10;94479.44;;;21.04;30.33
61961;BME280;47923;42.506;24.192;2023-04-26T11:19:37;94471.72;;;21.20;30.02
61961;BME280;47923;42.506;24.192;2023-04-26T11:22:05;94337.28;;;20.24;30.38
61961;BME280;47923;42.506;24.192;2023-04-26T11:24:33;94454.16;;;21.40;28.93
61961;BME280;47923;42.506;24.192;2023-04-26T11:27:01;94412.13;;;20.68;29.10
61961;BME280;47923;42.506;24.192;2023-04-26T11:29:32;94276.63;;;20.12;28.89
61961;BME280;47923;42.506;24.192;2023-04-26T11:31:57;94392.03;;;21.02;28.81
61961;BME280;47923;42.506;24.192;2023-04-26T11:34:33;94385.63;;;20.74;28.88
61961;BME280;47923;42.506;24.192;2023-04-26T11:37:02;94478.75;;;21.21;28.09
61961;BME280;47923;42.506;24.192;2023-04-26T11:39:32;94478.69;;;20.81;28.57
61961;BME280;47923;42.506;24.192;2023-04-26T11:42:08;94478.47;;;20.19;29.37
61961;BME280;47923;42.506;24.192;2023-04-26T11:44:35;94376.47;;;18.53;31.23
61961;BME280;47923;42.506;24.192;2023-04-26T11:47:02;94311.22;;;17.84;31.32
61961;BME280;47923;42.506;24.192;2023-04-26T11:49:31;94433.22;;;18.49;32.07
61961;BME280;47923;42.506;24.192;2023-04-26T11:51:58;94482.19;;;18.14;33.24
61961;BME280;47923;42.506;24.192;2023-04-26T11:54:27;94484.50;;;18.16;33.39
61961;BME280;47923;42.506;24.192;2023-04-26T11:56:54;94491.25;;;18.11;33.93
61961;BME280;47923;42.506;24.192;2023-04-26T11:59:24;94475.72;;;18.08;34.56
61961;BME280;47923;42.506;24.192;2023-04-26T12:01:50;94491.06;;;17.69;35.07
61961;BME280;47923;42.506;24.192;2023-04-26T12:04:18;94231.97;;;16.32;35.63
61961;BME280;47923;42.506;24.192;2023-04-26T12:06:45;94486.69;;;18.37;35.46
61961;BME280;47923;42.506;24.192;2023-04-26T12:09:11;94476.50;;;17.92;36.10
61961;BME280;47923;42.506;24.192;2023-04-26T12:11:38;94353.47;;;17.18;36.53
61961;BME280;47923;42.506;24.192;2023-04-26T12:14:03;94479.66;;;18.07;35.21
61961;BME280;47923;42.506;24.192;2023-04-26T12:16:30;94481.03;;;18.28;35.47
61961;BME280;47923;42.506;24.192;2023-04-26T12:18:56;94485.84;;;18.53;34.97
61961;BME280;47923;42.506;24.192;2023-04-26T12:21:22;94490.34;;;18.89;33.95
61961;BME280;47923;42.506;24.192;2023-04-26T12:23:48;94489.31;;;18.70;34.91
61961;BME280;47923;42.506;24.192;2023-04-26T12:26:15;94455.66;;;18.57;34.87
61961;BME280;47923;42.506;24.192;2023-04-26T12:28:41;94484.66;;;18.83;34.01
61961;BME280;47923;42.506;24.192;2023-04-26T12:31:06;94299.28;;;17.49;34.63
61961;BME280;47923;42.506;24.192;2023-04-26T12:33:32;94499.09;;;18.84;34.06
61961;BME280;47923;42.506;24.192;2023-04-26T12:36:08;94396.41;;;18.25;34.24
61961;BME280;47923;42.506;24.192;2023-04-26T12:38:34;94464.63;;;18.57;34.05
61961;BME280;47923;42.506;24.192;2023-04-26T12:41:00;94341.75;;;17.50;34.36
61961;BME280;47923;42.506;24.192;2023-04-26T12:43:26;94431.38;;;18.17;34.24
61961;BME280;47923;42.506;24.192;2023-04-26T12:45:51;94481.22;;;18.37;33.97
61961;BME280;47923;42.506;24.192;2023-04-26T12:48:17;94473.41;;;18.36;34.29
61961;BME280;47923;42.506;24.192;2023-04-26T12:50:43;94475.88;;;18.75;34.35
61961;BME280;47923;42.506;24.192;2023-04-26T12:53:09;94386.59;;;18.40;33.39
61961;BME280;47923;42.506;24.192;2023-04-26T12:55:38;94481.09;;;19.24;34.22
61961;BME280;47923;42.506;24.192;2023-04-26T12:58:03;94482.97;;;19.40;32.09
61961;BME280;47923;42.506;24.192;2023-04-26T13:00:29;94397.53;;;18.82;31.22
61961;BME280;47923;42.506;24.192;2023-04-26T13:02:55;94501.16;;;19.34;31.71
61961;BME280;47923;42.506;24.192;2023-04-26T13:05:21;94470.34;;;19.43;31.81
61961;BME280;47923;42.506;24.192;2023-04-26T13:07:48;94382.38;;;18.64;29.48
61961;BME280;47923;42.506;24.192;2023-04-26T13:10:15;94424.00;;;18.85;29.79
61961;BME280;47923;42.506;24.192;2023-04-26T13:12:41;94477.50;;;19.66;28.70